sensor_id;sensor_type;location;lat;lon;timestamp;P1;durP1;ratioP1;P2;durP2;ratioP2
84862;SDS011;75117;43.224;76.776;2024-02-26T00:00:04;34.00;;;21.70;;
84862;SDS011;75117;43.224;76.776;2024-02-26T00:00:20;33.80;;;21.08;;
84862;SDS011;75117;43.224;76.776;2024-02-26T00:00:33;33.25;;;20.88;;
84862;SDS011;75117;43.224;76.776;2024-02-26T00:00:46;33.95;;;20.48;;
84862;SDS011;75117;43.224;76.776;2024-02-26T00:00:59;33.53;;;20.55;;
84862;SDS011;75117;43.224;76.776;2024-02-26T00:01:11;34.67;;;21.63;;
84862;SDS011;75117;43.224;76.776;2024-02-26T00:01:23;34.83;;;21.58;;
84862;SDS011;75117;43.224;76.776;2024-02-26T00:01:36;34.15;;;21.85;;
84862;SDS011;75117;43.224;76.776;2024-02-26T00:01:49;36.30;;;22.52;;
84862;SDS011;75117;43.224;76.776;2024-02-26T00:02:01;36.00;;;22.75;;
84862;SDS011;75117;43.224;76.776;2024-02-26T00:02:14;34.90;;;22.27;;
84862;SDS011;75117;43.224;76.776;2024-02-26T00:02:26;37.42;;;22.48;;
84862;SDS011;75117;43.224;76.776;2024-02-26T00:02:38;39.50;;;22.92;;
84862;SDS011;75117;43.224;76.776;2024-02-26T00:02:51;38.45;;;22.40;;
84862;SDS011;75117;43.224;76.776;2024-02-26T00:03:04;36.75;;;22.15;;
84862;SDS011;75117;43.224;76.776;2024-02-26T00:03:16;34.70;;;22.20;;
84862;SDS011;75117;43.224;76.776;2024-02-26T00:03:28;34.83;;;22.67;;
84862;SDS011;75117;43.224;76.776;2024-02-26T00:03:41;34.45;;;22.02;;
84862;SDS011;75117;43.224;76.776;2024-02-26T00:03:53;35.47;;;21.70;;
84862;SDS011;75117;43.224;76.776;2024-02-26T00:04:11;34.45;;;22.55;;
84862;SDS011;75117;43.224;76.776;2024-02-26T00:04:24;33.37;;;23.03;;
84862;SDS011;75117;43.224;76.776;2024-02-26T00:04:37;33.53;;;23.27;;
84862;SDS011;75117;43.224;76.776;2024-02-26T00:04:49;34.88;;;23.55;;
84862;SDS011;75117;43.224;76.776;2024-02-26T00:05:02;35.65;;;22.13;;
84862;SDS011;75117;43.224;76.776;2024-02-26T00:05:14;35.85;;;21.48;;
84862;SDS011;75117;43.224;76.776;2024-02-26T00:05:26;34.05;;;22.70;;
84862;SDS011;75117;43.224;76.776;2024-02-26T00:05:39;31.80;;;22.52;;
84862;SDS011;75117;43.224;76.776;2024-02-26T00:05:51;33.08;;;23.50;;
84862;SDS011;75117;43.224;76.776;2024-02-26T00:06:04;34.90;;;23.02;;
84862;SDS011;75117;43.224;76.776;2024-02-26T00:06:17;38.22;;;22.98;;
84862;SDS011;75117;43.224;76.776;2024-02-26T00:06:30;41.17;;;24.02;;
84862;SDS011;75117;43.224;76.776;2024-02-26T00:06:42;41.13;;;23.85;;
84862;SDS011;75117;43.224;76.776;2024-02-26T00:06:55;36.80;;;22.48;;
84862;SDS011;75117;43.224;76.776;2024-02-26T00:07:07;36.38;;;21.95;;
84862;SDS011;75117;43.224;76.776;2024-02-26T00:07:20;35.03;;;21.70;;
84862;SDS011;75117;43.224;76.776;2024-02-26T00:07:32;34.20;;;22.45;;
84862;SDS011;75117;43.224;76.776;2024-02-26T00:07:45;35.15;;;22.52;;
84862;SDS011;75117;43.224;76.776;2024-02-26T00:07:58;33.03;;;21.40;;
84862;SDS011;75117;43.224;76.776;2024-02-26T00:08:11;33.75;;;21.98;;
84862;SDS011;75117;43.224;76.776;2024-02-26T00:08:23;34.50;;;22.30;;
84862;SDS011;75117;43.224;76.776;2024-02-26T00:08:35;36.40;;;24.38;;
84862;SDS011;75117;43.224;76.776;2024-02-26T00:08:48;36.05;;;24.42;;
84862;SDS011;75117;43.224;76.776;2024-02-26T00:09:00;34.78;;;24.85;;
84862;SDS011;75117;43.224;76.776;2024-02-26T00:09:14;35.28;;;24.35;;
84862;SDS011;75117;43.224;76.776;2024-02-26T00:09:26;37.28;;;24.00;;
84862;SDS011;75117;43.224;76.776;2024-02-26T00:09:39;38.42;;;25.15;;
84862;SDS011;75117;43.224;76.776;2024-02-26T00:09:51;37.33;;;23.75;;
84862;SDS011;75117;43.224;76.776;2024-02-26T00:10:03;39.78;;;23.73;;
84862;SDS011;75117;43.224;76.776;2024-02-26T00:10:16;37.55;;;23.33;;
84862;SDS011;75117;43.224;76.776;2024-02-26T00:10:29;36.97;;;23.70;;
84862;SDS011;75117;43.224;76.776;2024-02-26T00:10:41;35.00;;;23.13;;
84862;SDS011;75117;43.224;76.776;2024-02-26T00:10:54;33.47;;;21.95;;
84862;SDS011;75117;43.224;76.776;2024-02-26T00:11:06;33.25;;;21.38;;
84862;SDS011;75117;43.224;76.776;2024-02-26T00:11:19;33.80;;;21.70;;
84862;SDS011;75117;43.224;76.776;2024-02-26T00:11:31;35.15;;;21.33;;
84862;SDS011;75117;43.224;76.776;2024-02-26T00:11:43;40.15;;;23.65;;
84862;SDS011;75117;43.224;76.776;2024-02-26T00:11:56;43.50;;;25.35;;
84862;SDS011;75117;43.224;76.776;2024-02-26T00:12:09;39.83;;;24.70;;
84862;SDS011;75117;43.224;76.776;2024-02-26T00:12:22;38.78;;;24.33;;
84862;SDS011;75117;43.224;76.776;2024-02-26T00:12:34;36.97;;;23.85;;
84862;SDS011;75117;43.224;76.776;2024-02-26T00:12:46;34.42;;;22.92;;
84862;SDS011;75117;43.224;76.776;2024-02-26T00:12:59;35.15;;;22.92;;
84862;SDS011;75117;43.224;76.776;2024-02-26T00:13:12;36.08;;;23.25;;
84862;SDS011;75117;43.224;76.776;2024-02-26T00:13:24;35.92;;;22.75;;
84862;SDS011;75117;43.224;76.776;2024-02-26T00:13:36;38.05;;;23.55;;
84862;SDS011;75117;43.224;76.776;2024-02-26T00:13:49;37.75;;;24.13;;
84862;SDS011;75117;43.224;76.776;2024-02-26T00:14:01;38.58;;;23.85;;
84862;SDS011;75117;43.224;76.776;2024-02-26T00:14:14;37.08;;;22.25;;
84862;SDS011;75117;43.224;76.776;2024-02-26T00:14:26;37.20;;;23.38;;
84862;SDS011;75117;43.224;76.776;2024-02-26T00:14:38;34.45;;;23.58;;
84862;SDS011;75117;43.224;76.776;2024-02-26T00:14:52;36.17;;;23.27;;
84862;SDS011;75117;43.224;76.776;2024-02-26T00:15:06;37.45;;;22.38;;
84862;SDS011;75117;43.224;76.776;2024-02-26T00:15:18;38.92;;;23.67;;
84862;SDS011;75117;43.224;76.776;2024-02-26T00:15:31;40.70;;;24.33;;
84862;SDS011;75117;43.224;76.776;2024-02-26T00:15:43;39.20;;;24.20;;
84862;SDS011;75117;43.224;76.776;2024-02-26T00:15:56;37.38;;;25.20;;
84862;SDS011;75117;43.224;76.776;2024-02-26T00:16:08;35.83;;;23.92;;
84862;SDS011;75117;43.224;76.776;2024-02-26T00:16:21;37.58;;;22.48;;
84862;SDS011;75117;43.224;76.776;2024-02-26T00:16:33;39.88;;;23.20;;
84862;SDS011;75117;43.224;76.776;2024-02-26T00:16:45;38.60;;;23.52;;
84862;SDS011;75117;43.224;76.776;2024-02-26T00:16:58;36.65;;;22.92;;
84862;SDS011;75117;43.224;76.776;2024-02-26T00:17:11;37.88;;;23.17;;
84862;SDS011;75117;43.224;76.776;2024-02-26T00:17:24;42.38;;;24.33;;
84862;SDS011;75117;43.224;76.776;2024-02-26T00:17:36;44.72;;;24.65;;
84862;SDS011;75117;43.224;76.776;2024-02-26T00:17:49;41.28;;;23.33;;
84862;SDS011;75117;43.224;76.776;2024-02-26T00:18:01;37.77;;;22.93;;
84862;SDS011;75117;43.224;76.776;2024-02-26T00:18:14;37.92;;;22.55;;
84862;SDS011;75117;43.224;76.776;2024-02-26T00:18:26;38.50;;;23.38;;
84862;SDS011;75117;43.224;76.776;2024-02-26T00:18:39;37.60;;;23.35;;
84862;SDS011;75117;43.224;76.776;2024-02-26T00:18:51;35.50;;;24.58;;
84862;SDS011;75117;43.224;76.776;2024-02-26T00:19:03;33.85;;;25.17;;
84862;SDS011;75117;43.224;76.776;2024-02-26T00:19:16;34.03;;;24.90;;
84862;SDS011;75117;43.224;76.776;2024-02-26T00:19:28;35.63;;;23.98;;
84862;SDS011;75117;43.224;76.776;2024-02-26T00:19:41;36.03;;;22.75;;
84862;SDS011;75117;43.224;76.776;2024-02-26T00:19:53;37.03;;;23.15;;
84862;SDS011;75117;43.224;76.776;2024-02-26T00:20:06;40.75;;;23.70;;
84862;SDS011;75117;43.224;76.776;2024-02-26T00:20:20;39.47;;;23.13;;
84862;SDS011;75117;43.224;76.776;2024-02-26T00:20:32;37.90;;;24.38;;
84862;SDS011;75117;43.224;76.776;2024-02-26T00:20:45;37.00;;;24.23;;
84862;SDS011;75117;43.224;76.776;2024-02-26T00:20:57;35.67;;;22.98;;
84862;SDS011;75117;43.224;76.776;2024-02-26T00:21:10;39.20;;;23.98;;
84862;SDS011;75117;43.224;76.776;2024-02-26T00:21:23;40.45;;;23.75;;
84862;SDS011;75117;43.224;76.776;2024-02-26T00:21:39;41.40;;;24.80;;
84862;SDS011;75117;43.224;76.776;2024-02-26T00:21:53;37.47;;;24.02;;
84862;SDS011;75117;43.224;76.776;2024-02-26T00:22:07;37.70;;;23.37;;
84862;SDS011;75117;43.224;76.776;2024-02-26T00:22:19;41.00;;;24.17;;
84862;SDS011;75117;43.224;76.776;2024-02-26T00:22:33;37.42;;;23.38;;
84862;SDS011;75117;43.224;76.776;2024-02-26T00:22:46;34.80;;;23.30;;
84862;SDS011;75117;43.224;76.776;2024-02-26T00:22:58;37.53;;;24.38;;
84862;SDS011;75117;43.224;76.776;2024-02-26T00:23:11;38.83;;;24.88;;
84862;SDS011;75117;43.224;76.776;2024-02-26T00:23:26;42.20;;;24.02;;
84862;SDS011;75117;43.224;76.776;2024-02-26T00:23:39;41.90;;;24.05;;
84862;SDS011;75117;43.224;76.776;2024-02-26T00:23:52;39.45;;;23.13;;
84862;SDS011;75117;43.224;76.776;2024-02-26T00:24:05;39.05;;;23.25;;
84862;SDS011;75117;43.224;76.776;2024-02-26T00:24:18;39.50;;;24.55;;
84862;SDS011;75117;43.224;76.776;2024-02-26T00:24:30;43.80;;;25.23;;
84862;SDS011;75117;43.224;76.776;2024-02-26T00:24:42;38.30;;;23.42;;
84862;SDS011;75117;43.224;76.776;2024-02-26T00:24:55;34.45;;;23.98;;
84862;SDS011;75117;43.224;76.776;2024-02-26T00:25:07;38.35;;;24.40;;
84862;SDS011;75117;43.224;76.776;2024-02-26T00:25:20;38.88;;;23.75;;
84862;SDS011;75117;43.224;76.776;2024-02-26T00:25:32;39.72;;;24.08;;
84862;SDS011;75117;43.224;76.776;2024-02-26T00:25:45;38.88;;;23.55;;
84862;SDS011;75117;43.224;76.776;2024-02-26T00:25:57;39.65;;;23.92;;
84862;SDS011;75117;43.224;76.776;2024-02-26T00:26:10;40.33;;;24.00;;
84862;SDS011;75117;43.224;76.776;2024-02-26T00:26:22;40.20;;;23.52;;
84862;SDS011;75117;43.224;76.776;2024-02-26T00:26:35;38.90;;;23.50;;
84862;SDS011;75117;43.224;76.776;2024-02-26T00:26:47;39.03;;;22.80;;
84862;SDS011;75117;43.224;76.776;2024-02-26T00:27:04;40.00;;;23.80;;
84862;SDS011;75117;43.224;76.776;2024-02-26T00:27:17;38.55;;;24.25;;
84862;SDS011;75117;43.224;76.776;2024-02-26T00:27:29;36.92;;;24.65;;
84862;SDS011;75117;43.224;76.776;2024-02-26T00:27:41;36.40;;;24.27;;
84862;SDS011;75117;43.224;76.776;2024-02-26T00:27:55;37.40;;;23.10;;
84862;SDS011;75117;43.224;76.776;2024-02-26T00:28:07;37.75;;;22.75;;
84862;SDS011;75117;43.224;76.776;2024-02-26T00:28:20;38.25;;;23.60;;
84862;SDS011;75117;43.224;76.776;2024-02-26T00:28:33;39.80;;;25.38;;
84862;SDS011;75117;43.224;76.776;2024-02-26T00:28:46;43.80;;;25.83;;
84862;SDS011;75117;43.224;76.776;2024-02-26T00:28:58;41.80;;;25.48;;
84862;SDS011;75117;43.224;76.776;2024-02-26T00:29:11;39.97;;;25.67;;
84862;SDS011;75117;43.224;76.776;2024-02-26T00:29:23;39.63;;;27.48;;
84862;SDS011;75117;43.224;76.776;2024-02-26T00:29:36;40.83;;;27.58;;
84862;SDS011;75117;43.224;76.776;2024-02-26T00:29:48;42.95;;;27.33;;
84862;SDS011;75117;43.224;76.776;2024-02-26T00:30:01;45.80;;;27.33;;
84862;SDS011;75117;43.224;76.776;2024-02-26T00:30:13;43.00;;;26.17;;
84862;SDS011;75117;43.224;76.776;2024-02-26T00:30:26;40.53;;;25.70;;
84862;SDS011;75117;43.224;76.776;2024-02-26T00:30:38;40.05;;;26.30;;
84862;SDS011;75117;43.224;76.776;2024-02-26T00:30:51;40.97;;;27.27;;
84862;SDS011;75117;43.224;76.776;2024-02-26T00:31:07;41.83;;;27.58;;
84862;SDS011;75117;43.224;76.776;2024-02-26T00:31:19;42.55;;;27.67;;
84862;SDS011;75117;43.224;76.776;2024-02-26T00:31:32;42.03;;;27.23;;
84862;SDS011;75117;43.224;76.776;2024-02-26T00:31:44;43.13;;;26.95;;
84862;SDS011;75117;43.224;76.776;2024-02-26T00:31:57;42.45;;;26.13;;
84862;SDS011;75117;43.224;76.776;2024-02-26T00:32:10;41.70;;;25.23;;
84862;SDS011;75117;43.224;76.776;2024-02-26T00:32:22;41.35;;;25.88;;
84862;SDS011;75117;43.224;76.776;2024-02-26T00:32:35;43.35;;;26.13;;
84862;SDS011;75117;43.224;76.776;2024-02-26T00:32:47;48.65;;;26.70;;
84862;SDS011;75117;43.224;76.776;2024-02-26T00:33:00;49.17;;;26.23;;
84862;SDS011;75117;43.224;76.776;2024-02-26T00:33:13;45.45;;;25.65;;
84862;SDS011;75117;43.224;76.776;2024-02-26T00:33:28;44.53;;;25.33;;
84862;SDS011;75117;43.224;76.776;2024-02-26T00:33:41;43.67;;;25.95;;
84862;SDS011;75117;43.224;76.776;2024-02-26T00:33:53;40.30;;;25.92;;
84862;SDS011;75117;43.224;76.776;2024-02-26T00:34:06;37.22;;;24.90;;
84862;SDS011;75117;43.224;76.776;2024-02-26T00:34:18;38.38;;;23.88;;
84862;SDS011;75117;43.224;76.776;2024-02-26T00:34:31;42.58;;;25.67;;
84862;SDS011;75117;43.224;76.776;2024-02-26T00:34:43;45.38;;;27.75;;
84862;SDS011;75117;43.224;76.776;2024-02-26T00:34:56;44.28;;;28.27;;
84862;SDS011;75117;43.224;76.776;2024-02-26T00:35:08;44.47;;;26.38;;
84862;SDS011;75117;43.224;76.776;2024-02-26T00:35:21;42.35;;;25.00;;
84862;SDS011;75117;43.224;76.776;2024-02-26T00:35:33;42.83;;;24.98;;
84862;SDS011;75117;43.224;76.776;2024-02-26T00:35:46;39.83;;;24.80;;
84862;SDS011;75117;43.224;76.776;2024-02-26T00:35:58;41.25;;;25.02;;
84862;SDS011;75117;43.224;76.776;2024-02-26T00:36:11;41.00;;;24.63;;
84862;SDS011;75117;43.224;76.776;2024-02-26T00:36:23;40.47;;;24.02;;
84862;SDS011;75117;43.224;76.776;2024-02-26T00:36:36;40.70;;;24.75;;
84862;SDS011;75117;43.224;76.776;2024-02-26T00:36:48;43.55;;;27.70;;
84862;SDS011;75117;43.224;76.776;2024-02-26T00:37:01;45.63;;;29.40;;
84862;SDS011;75117;43.224;76.776;2024-02-26T00:37:13;41.17;;;27.13;;
84862;SDS011;75117;43.224;76.776;2024-02-26T00:37:26;42.15;;;26.30;;
84862;SDS011;75117;43.224;76.776;2024-02-26T00:37:38;44.60;;;25.48;;
84862;SDS011;75117;43.224;76.776;2024-02-26T00:37:51;41.80;;;26.20;;
84862;SDS011;75117;43.224;76.776;2024-02-26T00:38:03;38.35;;;25.95;;
84862;SDS011;75117;43.224;76.776;2024-02-26T00:38:16;38.60;;;25.80;;
84862;SDS011;75117;43.224;76.776;2024-02-26T00:38:28;40.88;;;24.95;;
84862;SDS011;75117;43.224;76.776;2024-02-26T00:38:41;39.08;;;25.00;;
84862;SDS011;75117;43.224;76.776;2024-02-26T00:38:54;37.55;;;25.98;;
84862;SDS011;75117;43.224;76.776;2024-02-26T00:39:07;38.13;;;26.10;;
84862;SDS011;75117;43.224;76.776;2024-02-26T00:39:21;37.35;;;24.60;;
84862;SDS011;75117;43.224;76.776;2024-02-26T00:39:33;37.00;;;24.17;;
84862;SDS011;75117;43.224;76.776;2024-02-26T00:39:45;37.47;;;23.98;;
84862;SDS011;75117;43.224;76.776;2024-02-26T00:39:59;36.58;;;22.65;;
84862;SDS011;75117;43.224;76.776;2024-02-26T00:40:11;34.22;;;21.98;;
84862;SDS011;75117;43.224;76.776;2024-02-26T00:40:24;34.45;;;22.45;;
84862;SDS011;75117;43.224;76.776;2024-02-26T00:40:36;37.25;;;22.58;;
84862;SDS011;75117;43.224;76.776;2024-02-26T00:40:48;36.75;;;22.52;;
84862;SDS011;75117;43.224;76.776;2024-02-26T00:41:01;36.63;;;23.67;;
84862;SDS011;75117;43.224;76.776;2024-02-26T00:41:13;37.53;;;23.95;;
84862;SDS011;75117;43.224;76.776;2024-02-26T00:41:26;36.35;;;21.65;;
84862;SDS011;75117;43.224;76.776;2024-02-26T00:41:39;36.83;;;21.67;;
84862;SDS011;75117;43.224;76.776;2024-02-26T00:41:52;35.60;;;23.27;;
84862;SDS011;75117;43.224;76.776;2024-02-26T00:42:05;36.58;;;24.08;;
84862;SDS011;75117;43.224;76.776;2024-02-26T00:42:17;37.47;;;24.20;;
84862;SDS011;75117;43.224;76.776;2024-02-26T00:42:29;34.83;;;23.70;;
84862;SDS011;75117;43.224;76.776;2024-02-26T00:42:42;33.83;;;22.58;;
84862;SDS011;75117;43.224;76.776;2024-02-26T00:42:57;33.22;;;21.52;;
84862;SDS011;75117;43.224;76.776;2024-02-26T00:43:10;31.98;;;21.15;;
84862;SDS011;75117;43.224;76.776;2024-02-26T00:43:22;32.38;;;21.48;;
84862;SDS011;75117;43.224;76.776;2024-02-26T00:43:35;32.83;;;22.05;;
84862;SDS011;75117;43.224;76.776;2024-02-26T00:43:49;33.35;;;21.85;;
84862;SDS011;75117;43.224;76.776;2024-02-26T00:44:02;32.92;;;22.20;;
84862;SDS011;75117;43.224;76.776;2024-02-26T00:44:14;34.70;;;22.15;;
84862;SDS011;75117;43.224;76.776;2024-02-26T00:44:27;33.55;;;20.95;;
84862;SDS011;75117;43.224;76.776;2024-02-26T00:44:39;30.47;;;19.73;;
84862;SDS011;75117;43.224;76.776;2024-02-26T00:44:51;30.75;;;20.50;;
84862;SDS011;75117;43.224;76.776;2024-02-26T00:45:04;33.15;;;21.45;;
84862;SDS011;75117;43.224;76.776;2024-02-26T00:45:17;33.47;;;21.63;;
84862;SDS011;75117;43.224;76.776;2024-02-26T00:45:30;33.25;;;21.55;;
84862;SDS011;75117;43.224;76.776;2024-02-26T00:45:43;31.25;;;22.17;;
84862;SDS011;75117;43.224;76.776;2024-02-26T00:45:58;31.65;;;21.75;;
84862;SDS011;75117;43.224;76.776;2024-02-26T00:46:11;33.72;;;20.88;;
84862;SDS011;75117;43.224;76.776;2024-02-26T00:46:23;34.67;;;21.08;;
84862;SDS011;75117;43.224;76.776;2024-02-26T00:46:36;35.17;;;22.70;;
84862;SDS011;75117;43.224;76.776;2024-02-26T00:46:49;33.08;;;21.90;;
84862;SDS011;75117;43.224;76.776;2024-02-26T00:47:01;30.58;;;21.33;;
84862;SDS011;75117;43.224;76.776;2024-02-26T00:47:14;31.25;;;21.45;;
84862;SDS011;75117;43.224;76.776;2024-02-26T00:47:26;31.23;;;21.73;;
84862;SDS011;75117;43.224;76.776;2024-02-26T00:47:38;32.03;;;21.92;;
84862;SDS011;75117;43.224;76.776;2024-02-26T00:47:53;33.33;;;22.27;;
84862;SDS011;75117;43.224;76.776;2024-02-26T00:48:06;34.33;;;22.15;;
84862;SDS011;75117;43.224;76.776;2024-02-26T00:48:19;34.20;;;21.15;;
84862;SDS011;75117;43.224;76.776;2024-02-26T00:48:31;33.40;;;20.80;;
84862;SDS011;75117;43.224;76.776;2024-02-26T00:48:44;33.97;;;21.35;;
84862;SDS011;75117;43.224;76.776;2024-02-26T00:48:56;33.05;;;21.20;;
84862;SDS011;75117;43.224;76.776;2024-02-26T00:49:08;30.05;;;19.90;;
84862;SDS011;75117;43.224;76.776;2024-02-26T00:49:21;30.05;;;20.50;;
84862;SDS011;75117;43.224;76.776;2024-02-26T00:49:33;31.83;;;21.67;;
84862;SDS011;75117;43.224;76.776;2024-02-26T00:49:45;34.92;;;22.17;;
84862;SDS011;75117;43.224;76.776;2024-02-26T00:49:59;35.72;;;22.65;;
84862;SDS011;75117;43.224;76.776;2024-02-26T00:50:11;32.35;;;22.38;;
84862;SDS011;75117;43.224;76.776;2024-02-26T00:50:23;34.42;;;21.77;;
84862;SDS011;75117;43.224;76.776;2024-02-26T00:50:36;36.07;;;22.27;;
84862;SDS011;75117;43.224;76.776;2024-02-26T00:50:48;37.05;;;23.05;;
84862;SDS011;75117;43.224;76.776;2024-02-26T00:51:01;35.63;;;23.45;;
84862;SDS011;75117;43.224;76.776;2024-02-26T00:51:13;36.30;;;22.17;;
84862;SDS011;75117;43.224;76.776;2024-02-26T00:51:27;35.65;;;22.33;;
84862;SDS011;75117;43.224;76.776;2024-02-26T00:51:39;35.67;;;23.08;;
84862;SDS011;75117;43.224;76.776;2024-02-26T00:51:51;34.92;;;23.17;;
84862;SDS011;75117;43.224;76.776;2024-02-26T00:52:04;34.17;;;22.15;;
84862;SDS011;75117;43.224;76.776;2024-02-26T00:52:16;35.67;;;22.88;;
84862;SDS011;75117;43.224;76.776;2024-02-26T00:52:29;37.53;;;22.48;;
84862;SDS011;75117;43.224;76.776;2024-02-26T00:52:41;33.92;;;21.00;;
84862;SDS011;75117;43.224;76.776;2024-02-26T00:52:54;31.90;;;20.75;;
84862;SDS011;75117;43.224;76.776;2024-02-26T00:53:06;30.88;;;19.52;;
84862;SDS011;75117;43.224;76.776;2024-02-26T00:53:20;32.72;;;20.38;;
84862;SDS011;75117;43.224;76.776;2024-02-26T00:53:32;32.90;;;22.08;;
84862;SDS011;75117;43.224;76.776;2024-02-26T00:53:46;32.78;;;22.30;;
84862;SDS011;75117;43.224;76.776;2024-02-26T00:53:58;31.75;;;21.67;;
84862;SDS011;75117;43.224;76.776;2024-02-26T00:54:10;32.42;;;21.75;;
84862;SDS011;75117;43.224;76.776;2024-02-26T00:54:23;32.40;;;22.05;;
84862;SDS011;75117;43.224;76.776;2024-02-26T00:54:35;33.08;;;22.45;;
84862;SDS011;75117;43.224;76.776;2024-02-26T00:54:48;33.97;;;21.63;;
84862;SDS011;75117;43.224;76.776;2024-02-26T00:55:01;33.22;;;20.95;;
84862;SDS011;75117;43.224;76.776;2024-02-26T00:55:14;32.63;;;20.23;;
84862;SDS011;75117;43.224;76.776;2024-02-26T00:55:26;31.95;;;19.77;;
84862;SDS011;75117;43.224;76.776;2024-02-26T00:55:39;32.80;;;20.10;;
84862;SDS011;75117;43.224;76.776;2024-02-26T00:55:51;32.30;;;20.80;;
84862;SDS011;75117;43.224;76.776;2024-02-26T00:56:04;34.03;;;21.08;;
84862;SDS011;75117;43.224;76.776;2024-02-26T00:56:16;33.20;;;21.80;;
84862;SDS011;75117;43.224;76.776;2024-02-26T00:56:29;32.63;;;21.33;;
84862;SDS011;75117;43.224;76.776;2024-02-26T00:56:41;32.97;;;20.48;;
84862;SDS011;75117;43.224;76.776;2024-02-26T00:56:54;31.23;;;19.38;;
84862;SDS011;75117;43.224;76.776;2024-02-26T00:57:06;30.02;;;18.98;;
84862;SDS011;75117;43.224;76.776;2024-02-26T00:57:19;30.42;;;19.58;;
84862;SDS011;75117;43.224;76.776;2024-02-26T00:57:31;31.25;;;19.88;;
84862;SDS011;75117;43.224;76.776;2024-02-26T00:57:43;31.13;;;19.25;;
84862;SDS011;75117;43.224;76.776;2024-02-26T00:57:56;31.00;;;19.08;;
84862;SDS011;75117;43.224;76.776;2024-02-26T00:58:09;31.92;;;19.83;;
84862;SDS011;75117;43.224;76.776;2024-02-26T00:58:22;34.67;;;20.17;;
84862;SDS011;75117;43.224;76.776;2024-02-26T00:58:34;35.42;;;19.33;;
84862;SDS011;75117;43.224;76.776;2024-02-26T00:58:47;32.47;;;19.80;;
84862;SDS011;75117;43.224;76.776;2024-02-26T00:59:00;31.02;;;19.90;;
84862;SDS011;75117;43.224;76.776;2024-02-26T00:59:13;33.92;;;20.35;;
84862;SDS011;75117;43.224;76.776;2024-02-26T00:59:25;34.45;;;19.88;;
84862;SDS011;75117;43.224;76.776;2024-02-26T00:59:37;30.92;;;18.30;;
84862;SDS011;75117;43.224;76.776;2024-02-26T00:59:50;29.35;;;18.75;;
84862;SDS011;75117;43.224;76.776;2024-02-26T01:00:02;29.52;;;19.67;;
84862;SDS011;75117;43.224;76.776;2024-02-26T01:00:15;29.58;;;19.85;;
84862;SDS011;75117;43.224;76.776;2024-02-26T01:00:28;30.05;;;20.17;;
84862;SDS011;75117;43.224;76.776;2024-02-26T01:00:41;31.63;;;20.30;;
84862;SDS011;75117;43.224;76.776;2024-02-26T01:00:53;31.38;;;19.75;;
84862;SDS011;75117;43.224;76.776;2024-02-26T01:01:06;29.98;;;19.52;;
84862;SDS011;75117;43.224;76.776;2024-02-26T01:01:19;27.92;;;18.52;;
84862;SDS011;75117;43.224;76.776;2024-02-26T01:01:31;26.98;;;17.90;;
84862;SDS011;75117;43.224;76.776;2024-02-26T01:01:44;27.33;;;17.83;;
84862;SDS011;75117;43.224;76.776;2024-02-26T01:01:56;29.60;;;20.85;;
84862;SDS011;75117;43.224;76.776;2024-02-26T01:02:10;30.23;;;22.60;;
84862;SDS011;75117;43.224;76.776;2024-02-26T01:02:22;30.65;;;21.38;;
84862;SDS011;75117;43.224;76.776;2024-02-26T01:02:35;30.65;;;20.35;;
84862;SDS011;75117;43.224;76.776;2024-02-26T01:02:48;30.17;;;20.40;;
84862;SDS011;75117;43.224;76.776;2024-02-26T01:03:00;27.55;;;19.60;;
84862;SDS011;75117;43.224;76.776;2024-02-26T01:03:13;27.42;;;19.85;;
84862;SDS011;75117;43.224;76.776;2024-02-26T01:03:25;28.52;;;19.77;;
84862;SDS011;75117;43.224;76.776;2024-02-26T01:03:37;28.45;;;19.42;;
84862;SDS011;75117;43.224;76.776;2024-02-26T01:03:50;29.33;;;19.73;;
84862;SDS011;75117;43.224;76.776;2024-02-26T01:04:02;31.15;;;20.13;;
84862;SDS011;75117;43.224;76.776;2024-02-26T01:04:14;31.90;;;20.50;;
84862;SDS011;75117;43.224;76.776;2024-02-26T01:04:27;30.65;;;20.70;;
84862;SDS011;75117;43.224;76.776;2024-02-26T01:04:39;31.85;;;21.40;;
84862;SDS011;75117;43.224;76.776;2024-02-26T01:04:52;32.25;;;20.67;;
84862;SDS011;75117;43.224;76.776;2024-02-26T01:05:05;32.67;;;20.13;;
84862;SDS011;75117;43.224;76.776;2024-02-26T01:05:18;31.58;;;19.95;;
84862;SDS011;75117;43.224;76.776;2024-02-26T01:05:30;32.13;;;20.65;;
84862;SDS011;75117;43.224;76.776;2024-02-26T01:05:43;29.30;;;19.90;;
84862;SDS011;75117;43.224;76.776;2024-02-26T01:05:55;30.35;;;20.88;;
84862;SDS011;75117;43.224;76.776;2024-02-26T01:06:08;31.50;;;21.60;;
84862;SDS011;75117;43.224;76.776;2024-02-26T01:06:21;35.20;;;22.38;;
84862;SDS011;75117;43.224;76.776;2024-02-26T01:06:34;35.50;;;22.13;;
84862;SDS011;75117;43.224;76.776;2024-02-26T01:06:46;34.90;;;22.10;;
84862;SDS011;75117;43.224;76.776;2024-02-26T01:06:59;34.72;;;21.95;;
84862;SDS011;75117;43.224;76.776;2024-02-26T01:07:11;36.30;;;22.40;;
84862;SDS011;75117;43.224;76.776;2024-02-26T01:07:24;37.65;;;23.73;;
84862;SDS011;75117;43.224;76.776;2024-02-26T01:07:36;35.03;;;23.35;;
84862;SDS011;75117;43.224;76.776;2024-02-26T01:07:48;35.28;;;22.17;;
84862;SDS011;75117;43.224;76.776;2024-02-26T01:08:01;37.97;;;23.17;;
84862;SDS011;75117;43.224;76.776;2024-02-26T01:08:14;39.05;;;25.23;;
84862;SDS011;75117;43.224;76.776;2024-02-26T01:08:26;38.25;;;25.08;;
84862;SDS011;75117;43.224;76.776;2024-02-26T01:08:38;38.63;;;24.90;;
84862;SDS011;75117;43.224;76.776;2024-02-26T01:08:51;39.92;;;24.48;;
84862;SDS011;75117;43.224;76.776;2024-02-26T01:09:03;38.97;;;24.90;;
84862;SDS011;75117;43.224;76.776;2024-02-26T01:09:16;38.60;;;23.98;;
84862;SDS011;75117;43.224;76.776;2024-02-26T01:09:29;38.75;;;22.98;;
84862;SDS011;75117;43.224;76.776;2024-02-26T01:09:42;37.15;;;22.17;;
84862;SDS011;75117;43.224;76.776;2024-02-26T01:09:54;38.72;;;22.95;;
84862;SDS011;75117;43.224;76.776;2024-02-26T01:10:07;40.75;;;23.80;;
84862;SDS011;75117;43.224;76.776;2024-02-26T01:10:20;37.27;;;23.23;;
84862;SDS011;75117;43.224;76.776;2024-02-26T01:10:32;37.83;;;23.23;;
84862;SDS011;75117;43.224;76.776;2024-02-26T01:10:45;37.70;;;22.70;;
84862;SDS011;75117;43.224;76.776;2024-02-26T01:10:58;37.53;;;23.08;;
84862;SDS011;75117;43.224;76.776;2024-02-26T01:11:10;38.08;;;22.95;;
84862;SDS011;75117;43.224;76.776;2024-02-26T01:11:23;37.70;;;23.65;;
84862;SDS011;75117;43.224;76.776;2024-02-26T01:11:36;41.05;;;24.65;;
84862;SDS011;75117;43.224;76.776;2024-02-26T01:11:48;40.22;;;23.05;;
84862;SDS011;75117;43.224;76.776;2024-02-26T01:12:00;35.92;;;22.10;;
84862;SDS011;75117;43.224;76.776;2024-02-26T01:12:14;35.47;;;23.38;;
84862;SDS011;75117;43.224;76.776;2024-02-26T01:12:27;36.33;;;24.80;;
84862;SDS011;75117;43.224;76.776;2024-02-26T01:12:39;35.72;;;24.67;;
84862;SDS011;75117;43.224;76.776;2024-02-26T01:12:52;36.38;;;23.23;;
84862;SDS011;75117;43.224;76.776;2024-02-26T01:13:04;34.80;;;23.23;;